createdAt,value
2019-05-19T00:00:16.856Z,0.00
2019-05-19T00:01:16.829Z,0.00
2019-05-19T00:02:16.814Z,0.00
2019-05-19T00:03:16.789Z,0.00
2019-05-19T00:04:16.782Z,0.00
2019-05-19T00:05:16.774Z,0.00
2019-05-19T00:06:16.737Z,0.00
2019-05-19T00:07:16.721Z,0.00
2019-05-19T00:08:16.708Z,0.00
2019-05-19T00:09:16.817Z,0.00
2019-05-19T00:10:16.686Z,0.00
2019-05-19T06:09:28.796Z,5920.00
2019-05-19T06:10:28.760Z,6076.00
2019-05-19T06:11:28.740Z,6236.00
2019-05-19T06:12:28.733Z,6444.00
2019-05-19T06:13:28.697Z,6616.00
2019-05-19T06:14:28.678Z,6740.00
2019-05-19T06:15:28.672Z,6796.00
2019-05-19T06:16:28.637Z,6876.00
2019-05-19T06:17:28.653Z,6976.00
2019-05-19T06:18:28.603Z,7092.00
2019-05-19T06:19:28.579Z,7252.00
2019-05-19T06:20:28.560Z,7460.00
2019-05-19T06:21:28.544Z,7636.00
2019-05-19T06:22:28.527Z,7804.00
2019-05-19T06:23:28.518Z,7984.00
2019-05-19T06:24:28.488Z,8196.00
2019-05-19T06:25:28.513Z,8356.00
2019-05-19T06:26:28.450Z,8524.00
2019-05-19T06:27:28.433Z,8700.00
2019-05-19T06:28:28.428Z,8860.00
2019-05-19T06:29:28.400Z,9020.00
2019-05-19T06:30:28.378Z,9184.00
2019-05-19T06:31:28.361Z,9276.00
2019-05-19T06:32:28.346Z,9284.00
2019-05-19T06:33:28.351Z,9308.00
2019-05-19T06:34:28.307Z,9364.00
2019-05-19T06:35:28.290Z,9436.00
2019-05-19T06:36:28.273Z,9500.00
2019-05-19T06:37:28.255Z,9516.00
2019-05-19T06:38:28.243Z,9544.00
2019-05-19T06:39:28.235Z,9592.00
2019-05-19T06:40:28.216Z,9620.00
2019-05-19T06:41:28.187Z,9672.00
2019-05-19T06:42:28.174Z,9696.00
2019-05-19T06:43:28.157Z,9712.00
2019-05-19T06:44:28.154Z,9744.00
2019-05-19T06:45:28.130Z,9808.00
2019-05-19T06:46:28.102Z,9900.00
2019-05-19T06:47:28.085Z,10012.00
2019-05-19T06:48:28.071Z,10180.00
2019-05-19T06:49:28.065Z,10340.00
2019-05-19T06:50:28.037Z,10452.00
2019-05-19T06:51:28.075Z,10516.00
2019-05-19T06:52:28.005Z,10564.00
2019-05-19T06:53:27.993Z,10596.00
2019-05-19T06:54:27.992Z,10572.00
2019-05-19T06:55:27.971Z,10540.00
2019-05-19T06:56:27.942Z,10560.00
2019-05-19T06:57:27.926Z,10648.00
2019-05-19T06:58:27.909Z,10788.00
2019-05-19T06:59:27.890Z,10900.00
2019-05-19T07:00:27.886Z,11004.00
2019-05-19T07:01:27.860Z,11136.00
2019-05-19T07:02:27.845Z,11252.00
2019-05-19T07:03:27.886Z,11340.00
2019-05-19T07:04:27.807Z,11396.00
2019-05-19T07:05:28.542Z,11448.00
2019-05-19T07:06:27.964Z,11468.00
2019-05-19T07:07:27.760Z,11452.00
2019-05-19T07:08:27.781Z,11424.00
2019-05-19T07:09:27.748Z,11376.00
2019-05-19T07:10:27.735Z,11316.00
2019-05-19T07:11:27.709Z,11264.00
2019-05-19T07:12:27.683Z,11228.00
2019-05-19T07:13:27.696Z,11236.00
2019-05-19T07:14:27.652Z,11232.00
2019-05-19T07:15:27.639Z,11208.00
2019-05-19T07:16:27.635Z,11192.00
2019-05-19T07:17:27.607Z,11224.00
2019-05-19T07:18:27.589Z,11292.00
2019-05-19T07:19:27.572Z,11428.00
2019-05-19T07:20:27.557Z,11600.00
2019-05-19T07:21:27.558Z,11756.00
2019-05-19T07:22:27.531Z,11892.00
2019-05-19T07:23:28.787Z,12044.00
2019-05-19T07:24:27.497Z,12220.00
2019-05-19T07:25:27.483Z,12392.00
2019-05-19T07:26:27.486Z,12640.00
2019-05-19T07:27:27.451Z,12852.00
2019-05-19T07:28:27.435Z,12996.00
2019-05-19T07:29:27.421Z,13124.00
2019-05-19T07:30:27.410Z,13296.00
2019-05-19T07:31:27.409Z,13460.00
2019-05-19T07:32:27.374Z,13616.00
2019-05-19T07:33:27.360Z,13744.00
2019-05-19T07:34:27.403Z,13848.00
2019-05-19T07:35:27.329Z,13980.00
2019-05-19T07:36:27.334Z,14060.00
2019-05-19T07:37:27.316Z,14120.00
2019-05-19T07:38:27.286Z,14248.00
2019-05-19T07:39:27.271Z,14348.00
2019-05-19T07:40:27.272Z,14468.00
2019-05-19T07:41:27.244Z,14596.00
2019-05-19T07:42:27.240Z,14688.00
2019-05-19T07:43:27.212Z,14784.00
2019-05-19T07:44:27.198Z,14924.00
2019-05-19T07:45:27.181Z,14984.00
2019-05-19T07:46:27.166Z,15104.00
2019-05-19T07:47:27.990Z,15124.00
2019-05-19T07:48:27.138Z,15056.00
2019-05-19T07:49:27.274Z,14988.00
2019-05-19T07:50:27.110Z,14932.00
2019-05-19T07:51:27.093Z,14912.00
2019-05-19T07:52:27.087Z,14924.00
2019-05-19T07:53:27.081Z,14964.00
2019-05-19T07:54:27.057Z,14980.00
2019-05-19T07:55:27.048Z,15028.00
2019-05-19T07:56:27.034Z,15036.00
2019-05-19T07:57:27.008Z,14992.00
2019-05-19T07:58:27.044Z,15068.00
2019-05-19T07:59:26.976Z,15116.00
2019-05-19T08:00:26.968Z,15176.00
2019-05-19T08:01:26.954Z,15232.00
2019-05-19T08:02:26.938Z,15272.00
2019-05-19T08:03:26.937Z,15292.00
2019-05-19T08:04:26.913Z,15304.00
2019-05-19T08:05:26.895Z,15272.00
2019-05-19T08:06:26.882Z,15264.00
2019-05-19T08:07:26.869Z,15212.00
2019-05-19T08:08:26.890Z,15168.00
2019-05-19T08:09:26.851Z,15148.00
2019-05-19T08:10:26.824Z,15192.00
2019-05-19T08:11:27.079Z,15252.00
2019-05-19T08:12:26.797Z,15356.00
2019-05-19T08:13:26.783Z,15496.00
2019-05-19T08:14:26.786Z,15664.00
2019-05-19T08:15:26.755Z,15848.00
2019-05-19T08:16:26.776Z,16004.00
2019-05-19T08:17:26.727Z,16168.00
2019-05-19T08:18:26.863Z,16268.00
2019-05-19T08:19:26.712Z,16336.00
2019-05-19T08:20:26.684Z,16388.00
2019-05-19T08:21:26.732Z,16412.00
2019-05-19T08:22:26.658Z,16512.00
2019-05-19T08:23:26.643Z,16576.00
2019-05-19T08:24:26.643Z,16544.00
2019-05-19T08:25:26.619Z,16348.00
2019-05-19T08:26:26.602Z,16072.00
2019-05-19T08:27:26.589Z,15924.00
2019-05-19T08:28:26.573Z,15712.00
2019-05-19T08:29:26.576Z,15528.00
2019-05-19T08:30:26.574Z,15228.00
2019-05-19T08:31:26.547Z,14944.00
2019-05-19T08:32:26.520Z,14616.00
2019-05-19T08:33:26.518Z,14300.00
2019-05-19T08:34:26.519Z,14008.00
2019-05-19T08:35:26.482Z,13716.00
2019-05-19T08:36:26.471Z,13448.00
2019-05-19T08:37:26.475Z,13276.00
2019-05-19T08:38:26.439Z,13132.00
2019-05-19T08:39:26.427Z,13100.00
2019-05-19T08:40:26.427Z,13084.00
2019-05-19T08:41:26.399Z,12972.00
2019-05-19T08:42:26.383Z,12832.00
2019-05-19T08:43:26.370Z,12644.00
2019-05-19T08:44:26.358Z,12588.00
2019-05-19T08:45:26.362Z,12488.00
2019-05-19T08:46:26.341Z,12368.00
2019-05-19T08:47:26.319Z,12256.00
2019-05-19T08:48:26.302Z,12144.00
2019-05-19T08:49:26.316Z,12060.00
2019-05-19T08:50:26.292Z,11972.00
2019-05-19T08:51:26.261Z,11840.00
2019-05-19T08:52:26.247Z,11696.00
2019-05-19T08:53:26.331Z,11688.00
2019-05-19T08:54:26.222Z,11624.00
2019-05-19T08:55:26.222Z,11564.00
2019-05-19T08:56:26.196Z,11556.00
2019-05-19T08:57:26.186Z,11572.00
2019-05-19T08:58:26.167Z,11584.00
2019-05-19T08:59:26.190Z,11588.00
2019-05-19T09:00:26.153Z,11568.00
2019-05-19T09:01:26.125Z,11520.00
2019-05-19T09:02:26.112Z,11468.00
2019-05-19T09:03:26.102Z,11400.00
2019-05-19T09:04:26.085Z,11356.00
2019-05-19T09:05:26.100Z,11384.00
2019-05-19T09:06:26.059Z,11556.00
2019-05-19T09:07:26.042Z,11680.00
2019-05-19T09:08:26.035Z,11736.00
2019-05-19T09:09:26.020Z,11756.00
2019-05-19T09:10:26.003Z,11772.00
2019-05-19T09:11:26.002Z,11796.00
2019-05-19T09:12:25.975Z,11848.00
2019-05-19T09:13:25.963Z,11896.00
2019-05-19T09:14:25.946Z,11928.00
2019-05-19T09:15:25.933Z,11920.00
2019-05-19T09:16:25.935Z,11900.00
2019-05-19T09:17:25.917Z,11904.00
2019-05-19T09:18:25.894Z,11916.00
2019-05-19T09:19:25.883Z,11924.00
2019-05-19T09:20:25.868Z,11916.00
2019-05-19T09:21:25.875Z,11944.00
2019-05-19T09:22:25.841Z,11936.00
2019-05-19T09:23:25.828Z,11912.00
2019-05-19T09:24:30.362Z,11916.00
2019-05-19T09:25:25.810Z,11916.00
2019-05-19T09:26:25.808Z,11960.00
2019-05-19T09:27:25.771Z,12064.00
2019-05-19T09:28:25.758Z,12208.00
2019-05-19T09:29:25.745Z,12236.00
2019-05-19T09:30:25.731Z,12180.00
2019-05-19T09:31:25.717Z,12100.00
2019-05-19T09:32:25.722Z,12104.00
2019-05-19T09:33:25.689Z,12176.00
2019-05-19T09:34:25.677Z,12240.00
2019-05-19T09:35:25.661Z,12324.00
2019-05-19T09:36:25.657Z,12460.00
2019-05-19T09:37:25.651Z,12548.00
2019-05-19T09:38:25.649Z,12604.00
2019-05-19T09:39:25.609Z,12604.00
2019-05-19T09:40:26.775Z,12564.00
2019-05-19T09:41:25.595Z,12536.00
2019-05-19T09:42:25.584Z,12492.00
2019-05-19T09:43:25.557Z,12460.00
2019-05-19T09:44:25.543Z,12416.00
2019-05-19T09:45:25.531Z,12404.00
2019-05-19T09:46:25.517Z,12356.00
2019-05-19T09:47:25.517Z,12280.00
2019-05-19T09:48:25.493Z,12208.00
2019-05-19T09:49:25.479Z,12148.00
2019-05-19T09:50:25.465Z,12072.00
2019-05-19T09:51:25.450Z,11972.00
2019-05-19T09:52:25.477Z,11896.00
2019-05-19T09:53:25.426Z,11820.00
2019-05-19T09:54:25.417Z,11756.00
2019-05-19T09:55:25.399Z,11668.00
2019-05-19T09:56:25.386Z,11576.00
2019-05-19T09:57:25.373Z,11480.00
2019-05-19T09:58:25.373Z,11396.00
2019-05-19T09:59:25.347Z,11324.00
2019-05-19T10:00:25.335Z,11240.00
2019-05-19T10:01:25.323Z,11216.00
2019-05-19T10:02:25.308Z,11224.00
2019-05-19T10:03:25.311Z,11276.00
2019-05-19T10:04:25.291Z,11352.00
2019-05-19T10:05:25.272Z,11432.00
2019-05-19T10:06:25.262Z,11528.00
2019-05-19T10:07:25.244Z,11600.00
2019-05-19T10:08:25.253Z,11664.00
2019-05-19T10:09:25.221Z,11740.00
2019-05-19T10:10:25.210Z,11804.00
2019-05-19T10:11:25.199Z,11872.00
2019-05-19T10:12:25.182Z,11988.00
2019-05-19T10:13:25.188Z,12136.00
2019-05-19T10:14:25.159Z,12276.00
2019-05-19T10:15:25.144Z,12492.00
2019-05-19T10:16:25.137Z,12680.00
2019-05-19T10:17:25.119Z,12836.00
2019-05-19T10:18:25.109Z,12948.00
2019-05-19T10:19:25.111Z,13000.00
2019-05-19T10:20:25.083Z,13068.00
2019-05-19T10:21:25.069Z,13148.00
2019-05-19T10:22:25.060Z,13136.00
2019-05-19T10:23:25.043Z,13104.00
2019-05-19T10:24:25.049Z,12932.00
2019-05-19T10:25:25.043Z,12804.00
2019-05-19T10:26:25.008Z,12732.00
2019-05-19T10:27:24.994Z,12656.00
2019-05-19T10:28:24.982Z,12676.00
2019-05-19T10:29:24.991Z,12716.00
2019-05-19T10:30:24.964Z,12680.00
2019-05-19T10:31:24.944Z,12648.00
2019-05-19T10:32:24.934Z,12628.00
2019-05-19T10:33:24.921Z,12640.00
2019-05-19T10:34:24.909Z,12676.00
2019-05-19T10:35:24.910Z,12736.00
2019-05-19T10:36:24.884Z,12816.00
2019-05-19T10:37:24.872Z,12940.00
2019-05-19T10:38:24.863Z,13052.00
2019-05-19T10:39:24.851Z,13128.00
2019-05-19T10:40:24.855Z,13248.00
2019-05-19T10:41:24.822Z,13396.00
2019-05-19T10:42:24.813Z,13572.00
2019-05-19T10:43:24.799Z,13712.00
2019-05-19T10:44:24.788Z,13828.00
2019-05-19T10:45:24.812Z,13960.00
2019-05-19T10:46:24.764Z,13992.00
2019-05-19T10:47:24.803Z,14088.00
2019-05-19T10:48:24.740Z,14160.00
2019-05-19T10:49:24.729Z,14280.00
2019-05-19T10:50:24.719Z,14348.00
2019-05-19T10:51:24.720Z,14424.00
2019-05-19T10:52:24.707Z,14544.00
2019-05-19T10:53:24.683Z,14732.00
2019-05-19T10:54:24.672Z,14916.00
2019-05-19T10:55:35.971Z,15068.00
2019-05-19T10:56:24.671Z,15220.00
2019-05-19T10:57:24.635Z,15320.00
2019-05-19T10:58:24.614Z,15440.00
2019-05-19T10:59:24.601Z,15388.00
2019-05-19T11:00:24.590Z,15416.00
2019-05-19T11:01:24.577Z,15472.00
2019-05-19T11:02:24.580Z,15708.00
2019-05-19T11:03:24.554Z,15956.00
2019-05-19T11:04:24.543Z,16200.00
2019-05-19T11:05:24.527Z,16396.00
2019-05-19T11:06:25.511Z,16484.00
2019-05-19T11:07:24.516Z,16500.00
2019-05-19T11:08:24.495Z,16548.00
2019-05-19T11:09:24.480Z,16604.00
2019-05-19T11:10:24.471Z,16776.00
2019-05-19T11:11:24.455Z,17024.00
2019-05-19T11:12:24.491Z,17248.00
2019-05-19T11:13:24.475Z,17344.00
2019-05-19T11:14:24.421Z,17504.00
2019-05-19T11:15:24.410Z,17664.00
2019-05-19T11:16:24.401Z,17760.00
2019-05-19T11:17:24.385Z,17888.00
2019-05-19T11:18:24.499Z,17952.00
2019-05-19T11:19:24.389Z,18048.00
2019-05-19T11:20:24.349Z,18080.00
2019-05-19T11:21:24.335Z,18048.00
2019-05-19T11:22:24.339Z,18016.00
2019-05-19T11:23:24.359Z,17888.00
2019-05-19T11:24:24.311Z,17728.00
2019-05-19T11:25:33.376Z,17728.00
2019-05-19T11:26:24.278Z,17760.00
2019-05-19T11:27:24.271Z,17856.00
2019-05-19T11:28:24.478Z,17952.00
2019-05-19T11:29:24.243Z,18112.00
2019-05-19T11:30:24.233Z,18240.00
2019-05-19T11:31:24.219Z,18336.00
2019-05-19T11:32:24.210Z,18496.00
2019-05-19T11:33:24.197Z,18592.00
2019-05-19T11:34:24.211Z,18720.00
2019-05-19T11:35:24.174Z,18880.00
2019-05-19T11:36:24.166Z,19072.00
2019-05-19T11:37:24.153Z,19264.00
2019-05-19T11:38:24.148Z,19456.00
2019-05-19T11:39:24.143Z,19744.00
2019-05-19T11:40:24.117Z,19872.00
2019-05-19T11:41:24.132Z,19968.00
2019-05-19T11:42:24.096Z,20032.00
2019-05-19T11:43:24.085Z,20096.00
2019-05-19T11:44:24.109Z,20160.00
2019-05-19T11:45:24.060Z,20192.00
2019-05-19T11:46:24.049Z,20320.00
2019-05-19T11:47:24.037Z,20352.00
2019-05-19T11:48:24.025Z,20480.00
2019-05-19T11:49:24.019Z,20512.00
2019-05-19T11:50:24.018Z,20416.00
2019-05-19T11:51:24.036Z,20384.00
2019-05-19T11:52:23.980Z,20320.00
2019-05-19T11:53:23.973Z,20192.00
2019-05-19T11:54:23.958Z,20000.00
2019-05-19T11:55:23.963Z,19904.00
2019-05-19T11:56:23.951Z,19808.00
2019-05-19T11:57:24.109Z,19744.00
2019-05-19T11:58:24.002Z,19680.00
2019-05-19T11:59:23.914Z,19488.00
2019-05-19T12:00:23.961Z,19328.00
2019-05-19T12:01:23.924Z,19168.00
2019-05-19T12:02:23.875Z,19104.00
2019-05-19T12:03:23.862Z,19040.00
2019-05-19T12:04:23.867Z,18976.00
2019-05-19T12:05:23.892Z,18912.00
2019-05-19T12:06:38.006Z,18880.00
2019-05-19T12:07:23.814Z,18912.00
2019-05-19T12:08:23.808Z,18880.00
2019-05-19T12:09:23.825Z,18912.00
2019-05-19T12:10:23.783Z,19008.00
2019-05-19T12:11:23.782Z,19136.00
2019-05-19T12:12:23.758Z,19264.00
2019-05-19T12:13:23.750Z,19424.00
2019-05-19T12:14:23.742Z,19648.00
2019-05-19T12:15:23.727Z,19808.00
2019-05-19T12:16:23.754Z,19968.00
2019-05-19T12:17:23.702Z,20064.00
2019-05-19T12:18:23.694Z,20128.00
2019-05-19T12:19:23.719Z,20160.00
2019-05-19T12:20:23.670Z,20192.00
2019-05-19T12:21:23.659Z,20224.00
2019-05-19T12:22:23.676Z,20288.00
2019-05-19T12:23:23.651Z,20416.00
2019-05-19T12:24:23.637Z,20544.00
2019-05-19T12:25:23.692Z,20672.00
2019-05-19T12:26:23.912Z,20800.00
2019-05-19T12:27:23.617Z,20960.00
2019-05-19T12:28:23.589Z,21184.00
2019-05-19T12:29:23.571Z,21408.00
2019-05-19T12:30:23.558Z,21632.00
2019-05-19T12:31:23.553Z,21792.00
2019-05-19T12:32:23.559Z,21984.00
2019-05-19T12:33:23.527Z,22144.00
2019-05-19T12:34:23.520Z,22336.00
2019-05-19T12:35:23.516Z,22464.00
2019-05-19T12:36:23.497Z,22656.00
2019-05-19T12:37:23.520Z,22848.00
2019-05-19T12:38:23.468Z,23104.00
2019-05-19T12:39:23.462Z,23456.00
2019-05-19T12:40:23.448Z,23872.00
2019-05-19T12:41:23.440Z,24320.00
2019-05-19T12:42:23.431Z,24832.00
2019-05-19T12:43:23.434Z,25344.00
2019-05-19T12:44:23.405Z,25856.00
2019-05-19T12:45:23.392Z,26432.00
2019-05-19T12:46:23.384Z,26752.00
2019-05-19T12:47:23.381Z,27232.00
2019-05-19T12:48:23.375Z,27840.00
2019-05-19T12:49:23.351Z,28224.00
2019-05-19T12:50:23.337Z,28640.00
2019-05-19T12:51:26.662Z,29088.00
2019-05-19T12:52:23.315Z,29472.00
2019-05-19T12:53:23.342Z,29856.00
2019-05-19T12:54:23.306Z,30304.00
2019-05-19T12:55:23.284Z,30496.00
2019-05-19T12:56:37.128Z,30304.00
2019-05-19T12:57:23.262Z,29920.00
2019-05-19T12:58:23.272Z,29568.00
2019-05-19T12:59:23.240Z,29312.00
2019-05-19T13:00:23.231Z,29216.00
2019-05-19T13:01:23.222Z,29056.00
2019-05-19T13:02:23.284Z,28640.00
2019-05-19T13:03:23.201Z,27968.00
2019-05-19T13:04:23.207Z,27264.00
2019-05-19T13:05:23.182Z,26752.00
2019-05-19T13:06:23.172Z,26336.00
2019-05-19T13:07:23.162Z,25696.00
2019-05-19T13:08:23.152Z,24704.00
2019-05-19T13:09:23.157Z,23712.00
2019-05-19T13:10:23.135Z,23200.00
2019-05-19T13:11:23.123Z,23360.00
2019-05-19T13:12:23.114Z,23488.00
2019-05-19T13:13:23.104Z,23136.00
2019-05-19T13:14:23.108Z,21952.00
2019-05-19T13:15:23.087Z,20416.00
2019-05-19T13:16:23.076Z,18560.00
2019-05-19T13:17:23.064Z,16456.00
2019-05-19T13:18:23.055Z,14032.00
2019-05-19T13:19:23.075Z,11664.00
2019-05-19T13:20:23.034Z,9288.00
2019-05-19T13:21:23.026Z,7688.00
2019-05-19T13:22:23.015Z,6828.00
2019-05-19T13:23:23.007Z,6620.00
2019-05-19T13:24:22.997Z,6848.00
2019-05-19T13:25:23.004Z,7344.00
2019-05-19T13:26:22.974Z,7552.00
2019-05-19T13:27:22.966Z,7760.00
2019-05-19T13:28:22.952Z,8464.00
2019-05-19T13:29:22.942Z,10672.00
2019-05-19T13:30:22.954Z,12384.00
2019-05-19T13:31:22.916Z,12676.00
2019-05-19T13:32:22.910Z,12456.00
2019-05-19T13:33:22.896Z,13252.00
2019-05-19T13:34:22.887Z,15356.00
2019-05-19T13:35:22.886Z,14912.00
2019-05-19T13:36:22.863Z,14724.00
2019-05-19T13:37:22.849Z,13964.00
2019-05-19T13:38:22.837Z,13012.00
2019-05-19T13:39:22.829Z,11200.00
2019-05-19T13:40:22.830Z,9852.00
2019-05-19T13:41:22.805Z,8796.00
2019-05-19T13:42:22.792Z,7892.00
2019-05-19T13:43:26.187Z,7324.00
2019-05-19T13:44:22.773Z,6784.00
2019-05-19T13:45:22.769Z,6324.00
2019-05-19T13:46:22.744Z,5748.00
2019-05-19T13:47:22.731Z,5220.00
2019-05-19T13:48:22.721Z,4904.00
2019-05-19T13:49:22.715Z,4748.00
2019-05-19T13:50:22.710Z,4740.00
2019-05-19T13:51:22.682Z,4784.00
2019-05-19T13:52:22.668Z,4788.00
2019-05-19T13:53:22.655Z,4812.00
2019-05-19T13:54:22.645Z,4840.00
2019-05-19T13:55:22.645Z,4800.00
2019-05-19T13:56:22.618Z,4752.00
2019-05-19T13:57:22.605Z,4764.00
2019-05-19T13:58:22.604Z,4868.00
2019-05-19T13:59:22.577Z,5036.00
2019-05-19T14:00:22.582Z,5244.00
2019-05-19T14:01:28.782Z,5496.00
2019-05-19T14:02:22.542Z,5832.00
2019-05-19T14:03:22.524Z,6340.00
2019-05-19T14:04:22.512Z,7028.00
2019-05-19T14:05:22.498Z,7852.00
2019-05-19T14:06:22.501Z,8752.00
2019-05-19T14:07:22.471Z,9940.00
2019-05-19T14:08:22.460Z,12444.00
2019-05-19T14:09:22.454Z,14584.00
2019-05-19T14:10:22.431Z,14040.00
2019-05-19T14:11:22.429Z,16128.00
2019-05-19T14:12:22.404Z,21056.00
2019-05-19T14:13:22.390Z,26208.00
2019-05-19T14:14:22.376Z,27648.00
2019-05-19T14:15:22.407Z,25280.00
2019-05-19T14:16:22.374Z,26016.00
2019-05-19T14:17:22.339Z,26912.00
2019-05-19T14:18:22.323Z,41696.00
2019-05-19T14:19:22.318Z,49056.00
2019-05-19T14:20:22.293Z,57568.00
2019-05-19T14:21:22.329Z,57152.00
2019-05-19T14:22:22.266Z,70560.00
2019-05-19T14:23:22.254Z,60256.00
2019-05-19T14:24:22.245Z,60768.00
2019-05-19T14:25:22.226Z,59616.00
2019-05-19T14:26:22.214Z,53952.00
2019-05-19T14:27:30.066Z,47040.00
2019-05-19T14:28:22.190Z,34112.00
2019-05-19T14:29:22.177Z,28896.00
2019-05-19T14:30:22.167Z,43200.00
2019-05-19T14:31:22.191Z,26816.00
2019-05-19T14:32:22.157Z,25696.00
2019-05-19T14:33:22.129Z,23680.00
2019-05-19T14:34:22.121Z,22272.00
2019-05-19T14:35:22.106Z,21024.00
2019-05-19T14:36:22.094Z,20160.00
2019-05-19T14:37:22.097Z,19680.00
2019-05-19T14:38:22.071Z,19424.00
2019-05-19T14:39:22.058Z,19232.00
2019-05-19T14:40:22.047Z,18880.00
2019-05-19T14:41:33.105Z,18176.00
2019-05-19T14:42:22.055Z,17536.00
2019-05-19T14:43:22.010Z,16296.00
2019-05-19T14:44:21.999Z,15032.00
2019-05-19T14:45:21.986Z,13892.00
2019-05-19T14:46:21.974Z,13020.00
2019-05-19T14:47:21.999Z,12432.00
2019-05-19T14:48:21.957Z,12212.00
2019-05-19T14:49:21.941Z,12256.00
2019-05-19T14:50:21.932Z,12536.00
2019-05-19T14:51:21.933Z,13064.00
2019-05-19T14:52:21.920Z,13848.00
2019-05-19T14:53:21.889Z,14568.00
2019-05-19T14:54:21.873Z,15560.00
2019-05-19T14:55:21.866Z,16328.00
2019-05-19T14:56:21.850Z,17472.00
2019-05-19T14:57:21.874Z,29024.00
2019-05-19T14:58:21.824Z,23232.00
2019-05-19T14:59:21.809Z,19328.00
2019-05-19T15:00:21.799Z,19296.00
2019-05-19T15:01:21.793Z,19680.00
2019-05-19T15:02:21.775Z,21312.00
2019-05-19T15:03:21.779Z,23200.00
2019-05-19T15:04:21.748Z,25344.00
2019-05-19T15:05:21.734Z,27264.00
2019-05-19T15:06:21.722Z,42688.00
2019-05-19T15:07:21.707Z,47296.00
2019-05-19T15:08:21.709Z,52704.00
2019-05-19T15:09:21.683Z,38240.00
2019-05-19T15:10:21.672Z,56096.00
2019-05-19T15:11:21.660Z,57152.00
2019-05-19T15:12:21.648Z,55296.00
2019-05-19T15:13:21.672Z,57376.00
2019-05-19T15:14:21.627Z,55840.00
2019-05-19T15:15:21.613Z,42208.00
2019-05-19T15:16:21.600Z,43328.00
2019-05-19T15:17:21.592Z,37408.00
2019-05-19T15:18:21.579Z,45472.00
2019-05-19T15:19:21.582Z,61952.00
2019-05-19T15:20:21.557Z,59360.00
2019-05-19T15:21:21.549Z,56480.00
2019-05-19T15:22:21.537Z,47424.00
2019-05-19T15:23:21.527Z,49696.00
2019-05-19T15:24:21.533Z,54528.00
2019-05-19T15:25:21.509Z,53664.00
2019-05-19T15:26:21.503Z,53184.00
2019-05-19T15:27:21.493Z,38848.00
2019-05-19T15:28:21.481Z,38752.00
2019-05-19T15:29:21.492Z,29664.00
2019-05-19T15:30:21.463Z,28128.00
2019-05-19T15:31:21.453Z,27360.00
2019-05-19T15:32:21.446Z,26528.00
2019-05-19T15:33:21.466Z,25824.00
2019-05-19T15:34:21.428Z,25024.00
2019-05-19T15:35:21.431Z,23904.00
2019-05-19T15:36:21.409Z,22816.00
2019-05-19T15:37:21.401Z,22240.00
2019-05-19T15:38:21.393Z,21984.00
2019-05-19T15:39:21.382Z,21952.00
2019-05-19T15:40:21.386Z,22304.00
2019-05-19T15:41:21.438Z,23200.00
2019-05-19T15:42:21.355Z,24000.00
2019-05-19T15:43:21.350Z,24320.00
2019-05-19T15:44:21.336Z,24256.00
2019-05-19T15:45:21.341Z,23616.00
2019-05-19T15:46:21.320Z,23072.00
2019-05-19T15:47:21.309Z,22592.00
2019-05-19T15:48:21.297Z,21856.00
2019-05-19T15:49:21.286Z,21024.00
2019-05-19T15:50:21.293Z,20416.00
2019-05-19T15:51:28.735Z,19904.00
2019-05-19T15:52:21.257Z,19648.00
2019-05-19T15:53:21.244Z,20352.00
2019-05-19T15:54:21.237Z,21664.00
2019-05-19T15:55:21.243Z,26336.00
2019-05-19T15:56:21.215Z,29888.00
2019-05-19T15:57:21.204Z,27936.00
2019-05-19T15:58:21.197Z,27296.00
2019-05-19T15:59:21.182Z,22688.00
2019-05-19T16:00:21.172Z,22112.00
2019-05-19T16:01:21.173Z,26720.00
2019-05-19T16:02:21.154Z,27072.00
2019-05-19T16:03:21.146Z,21728.00
2019-05-19T16:04:21.128Z,20352.00
2019-05-19T16:05:21.120Z,20224.00
2019-05-19T16:06:21.132Z,20256.00
2019-05-19T16:07:21.099Z,20800.00
2019-05-19T16:08:21.092Z,24288.00
2019-05-19T16:09:21.073Z,25312.00
2019-05-19T16:10:21.080Z,26112.00
2019-05-19T16:11:21.075Z,32896.00
2019-05-19T16:12:21.042Z,38432.00
2019-05-19T16:13:22.118Z,34976.00
2019-05-19T16:14:21.021Z,31328.00
2019-05-19T16:15:21.009Z,23520.00
2019-05-19T16:16:20.998Z,23552.00
2019-05-19T16:17:21.009Z,21184.00
2019-05-19T16:18:20.980Z,37088.00
2019-05-19T16:19:20.972Z,44672.00
2019-05-19T16:20:20.962Z,27808.00
2019-05-19T16:21:20.967Z,35648.00
2019-05-19T16:22:20.960Z,28352.00
2019-05-19T16:23:20.928Z,21184.00
2019-05-19T16:24:20.921Z,28352.00
2019-05-19T16:25:20.910Z,22592.00
2019-05-19T16:26:20.899Z,26592.00
2019-05-19T16:27:20.906Z,39008.00
2019-05-19T16:28:30.404Z,44768.00
2019-05-19T16:29:20.876Z,36320.00
2019-05-19T16:30:20.861Z,32960.00
2019-05-19T16:31:20.850Z,42752.00
2019-05-19T16:32:20.892Z,46272.00
2019-05-19T16:33:20.835Z,46368.00
2019-05-19T16:34:20.826Z,41472.00
2019-05-19T16:35:20.819Z,29280.00
2019-05-19T16:36:20.815Z,29472.00
2019-05-19T16:37:20.803Z,28064.00
2019-05-19T16:38:20.809Z,35456.00
2019-05-19T16:39:20.786Z,38720.00
2019-05-19T16:40:20.782Z,21312.00
2019-05-19T16:41:20.771Z,20448.00
2019-05-19T16:42:20.765Z,21792.00
2019-05-19T16:43:20.768Z,22752.00
2019-05-19T16:44:20.747Z,32928.00
2019-05-19T16:45:20.740Z,20448.00
2019-05-19T16:46:20.731Z,18848.00
2019-05-19T16:47:20.722Z,17376.00
2019-05-19T16:48:23.271Z,16512.00
2019-05-19T16:49:20.708Z,16156.00
2019-05-19T16:50:20.710Z,16228.00
2019-05-19T16:51:20.693Z,16640.00
2019-05-19T16:52:20.704Z,16992.00
2019-05-19T16:53:20.675Z,17280.00
2019-05-19T16:54:20.681Z,17472.00
2019-05-19T16:55:20.658Z,19616.00
2019-05-19T16:56:20.648Z,17472.00
2019-05-19T16:57:20.652Z,18464.00
2019-05-19T16:58:21.810Z,16960.00
2019-05-19T16:59:20.654Z,16512.00
2019-05-19T17:00:20.623Z,15892.00
2019-05-19T17:01:20.604Z,15704.00
2019-05-19T17:02:20.592Z,15448.00
2019-05-19T17:03:20.595Z,15220.00
2019-05-19T17:04:20.585Z,15032.00
2019-05-19T17:05:20.562Z,14916.00
2019-05-19T17:06:20.551Z,14956.00
2019-05-19T17:07:20.547Z,15500.00
2019-05-19T17:08:20.532Z,17344.00
2019-05-19T17:09:20.657Z,15620.00
2019-05-19T17:10:20.526Z,15400.00
2019-05-19T17:11:20.499Z,15652.00
2019-05-19T17:12:20.487Z,15496.00
2019-05-19T17:13:20.476Z,14860.00
2019-05-19T17:14:20.465Z,14084.00
2019-05-19T17:15:20.471Z,13380.00
2019-05-19T17:16:20.443Z,12640.00
2019-05-19T17:17:20.433Z,11636.00
2019-05-19T17:18:20.421Z,10588.00
2019-05-19T17:19:20.412Z,9816.00
2019-05-19T17:20:20.426Z,9252.00
2019-05-19T17:21:20.387Z,8836.00
2019-05-19T17:22:20.374Z,8556.00
2019-05-19T17:23:20.361Z,8412.00
2019-05-19T17:24:20.351Z,8420.00
2019-05-19T17:25:20.342Z,8556.00
2019-05-19T17:26:20.342Z,8688.00
2019-05-19T17:27:20.315Z,8872.00
2019-05-19T17:28:20.300Z,9200.00
2019-05-19T17:29:20.289Z,11232.00
2019-05-19T17:30:20.278Z,14624.00
2019-05-19T17:31:20.278Z,11700.00
2019-05-19T17:32:20.252Z,10252.00
2019-05-19T17:33:20.244Z,10708.00
2019-05-19T17:34:20.229Z,10108.00
2019-05-19T17:35:20.219Z,8960.00
2019-05-19T17:36:20.240Z,8980.00
2019-05-19T17:37:20.192Z,9632.00
2019-05-19T17:38:20.178Z,10436.00
2019-05-19T17:39:20.182Z,11072.00
2019-05-19T17:40:20.153Z,11224.00
2019-05-19T17:41:20.144Z,11236.00
2019-05-19T17:42:20.143Z,10956.00
2019-05-19T17:43:20.120Z,10532.00
2019-05-19T17:44:20.108Z,9072.00
2019-05-19T17:45:20.091Z,8744.00
2019-05-19T17:46:20.087Z,8508.00